createdAt,value
2022-08-14T00:01:10.055Z,9.40
2022-08-14T00:03:37.756Z,9.23
2022-08-14T00:06:14.026Z,9.20
2022-08-14T00:08:52.592Z,9.10
2022-08-14T00:11:19.844Z,9.00
2022-08-14T00:13:51.766Z,8.67
2022-08-14T00:16:41.352Z,8.85
2022-08-14T00:19:18.529Z,8.30
2022-08-14T00:21:46.698Z,9.38
2022-08-14T00:24:13.988Z,8.90
2022-08-14T00:26:54.717Z,9.17
2022-08-14T00:29:21.661Z,9.60
2022-08-14T00:31:56.474Z,9.50
2022-08-14T00:34:37.788Z,10.25
2022-08-14T00:37:12.399Z,9.70
2022-08-14T00:39:39.346Z,8.80
2022-08-14T00:42:21.416Z,9.27
2022-08-14T00:44:55.553Z,9.23
2022-08-14T00:47:23.747Z,9.63
2022-08-14T00:49:55.337Z,9.55
2022-08-14T00:52:23.157Z,9.83
2022-08-14T00:54:52.521Z,10.07
2022-08-14T00:57:25.785Z,9.18
2022-08-14T00:59:52.648Z,9.52
2022-08-14T01:02:23.268Z,9.80
2022-08-14T01:04:55.080Z,9.37
2022-08-14T01:07:22.961Z,9.60
2022-08-14T01:09:52.020Z,9.55
2022-08-14T01:12:26.855Z,9.10
2022-08-14T01:14:58.080Z,9.60
2022-08-14T01:17:28.676Z,9.37
2022-08-14T01:19:55.538Z,9.70
2022-08-14T01:22:26.661Z,9.10
2022-08-14T01:24:53.989Z,8.95
2022-08-14T01:27:24.147Z,9.93
2022-08-14T01:30:03.312Z,9.97
2022-08-14T01:32:35.622Z,9.82
2022-08-14T01:35:21.221Z,9.40
2022-08-14T01:37:57.797Z,9.52
2022-08-14T01:40:25.686Z,9.13
2022-08-14T01:43:02.943Z,9.87
2022-08-14T01:45:31.332Z,9.77
2022-08-14T01:48:06.927Z,9.63
2022-08-14T01:50:40.740Z,9.70
2022-08-14T01:53:09.752Z,9.85
2022-08-14T01:55:40.314Z,9.00
2022-08-14T01:58:20.173Z,9.27
2022-08-14T02:00:49.231Z,9.63
2022-08-14T02:03:15.972Z,9.40
2022-08-14T02:05:42.619Z,10.05
2022-08-14T02:08:11.263Z,10.53
2022-08-14T02:10:46.134Z,9.93
2022-08-14T02:13:16.076Z,9.95
2022-08-14T02:15:43.755Z,10.10
2022-08-14T02:18:11.782Z,10.15
2022-08-14T02:20:41.946Z,10.67
2022-08-14T02:23:09.080Z,10.73
2022-08-14T02:25:37.174Z,10.45
2022-08-14T02:28:23.805Z,10.60
2022-08-14T02:30:53.045Z,10.07
2022-08-14T02:33:19.800Z,9.80
2022-08-14T02:35:48.272Z,9.50
2022-08-14T02:38:29.874Z,10.38
2022-08-14T02:40:59.207Z,10.30
2022-08-14T02:43:36.776Z,10.73
2022-08-14T02:46:13.525Z,9.80
2022-08-14T02:49:03.452Z,9.95
2022-08-14T02:51:33.199Z,10.05
2022-08-14T02:54:00.155Z,9.88
2022-08-14T02:56:30.038Z,9.60
2022-08-14T02:59:00.415Z,9.67
2022-08-14T03:01:31.375Z,9.35
2022-08-14T03:04:14.673Z,10.00
2022-08-14T03:06:57.142Z,9.05
2022-08-14T03:09:25.520Z,10.30
2022-08-14T03:12:10.619Z,9.73
2022-08-14T03:14:37.447Z,10.20
2022-08-14T03:17:04.246Z,9.90
2022-08-14T03:19:31.472Z,9.85
2022-08-14T03:21:58.058Z,9.93
2022-08-14T03:24:26.062Z,11.17
2022-08-14T03:26:56.111Z,10.82
2022-08-14T03:29:26.390Z,10.85
2022-08-14T03:31:53.629Z,9.98
2022-08-14T03:34:24.894Z,10.35
2022-08-14T03:37:39.395Z,10.00
2022-08-14T03:39:53.778Z,9.88
2022-08-14T03:42:20.431Z,10.18
2022-08-14T03:45:19.857Z,11.25
2022-08-14T03:47:56.155Z,10.90
2022-08-14T03:50:30.889Z,10.57
2022-08-14T03:53:00.467Z,10.27
2022-08-14T03:55:28.054Z,10.93
2022-08-14T03:57:57.251Z,10.43
2022-08-14T04:00:42.995Z,11.02
2022-08-14T04:03:14.132Z,11.10
2022-08-14T04:05:48.796Z,11.15
2022-08-14T04:08:23.066Z,10.68
2022-08-14T04:10:57.061Z,10.27
2022-08-14T04:13:24.073Z,10.48
2022-08-14T04:16:01.144Z,10.33
2022-08-14T04:18:28.991Z,10.43
2022-08-14T04:20:55.905Z,10.38
2022-08-14T04:23:29.840Z,10.60
2022-08-14T04:25:59.806Z,10.02
2022-08-14T04:29:01.879Z,10.63
2022-08-14T04:31:15.263Z,9.98
2022-08-14T04:33:42.397Z,9.68
2022-08-14T04:36:15.985Z,10.07
2022-08-14T04:38:45.717Z,10.60
2022-08-14T04:41:14.118Z,10.03
2022-08-14T04:43:40.859Z,10.30
2022-08-14T04:46:54.630Z,9.82
2022-08-14T04:48:59.949Z,10.05
2022-08-14T04:51:26.920Z,11.18
2022-08-14T04:53:55.231Z,10.47
2022-08-14T04:56:31.286Z,10.48
2022-08-14T04:59:03.737Z,11.43
2022-08-14T05:01:33.987Z,11.15
2022-08-14T05:04:08.596Z,10.73
2022-08-14T05:06:38.754Z,10.73
2022-08-14T05:09:06.854Z,11.23
2022-08-14T05:11:36.461Z,10.50
2022-08-14T05:14:33.992Z,10.88
2022-08-14T05:16:50.159Z,10.70
2022-08-14T05:19:27.003Z,10.20
2022-08-14T05:22:01.231Z,11.15
2022-08-14T05:24:42.490Z,10.35
2022-08-14T05:27:11.437Z,10.05
2022-08-14T05:29:38.386Z,9.90
2022-08-14T05:32:05.663Z,10.03
2022-08-14T05:34:33.675Z,10.05
2022-08-14T05:37:03.056Z,10.10
2022-08-14T05:39:31.132Z,10.20
2022-08-14T05:41:58.347Z,10.30
2022-08-14T05:44:29.548Z,11.10
2022-08-14T05:46:57.022Z,10.40
2022-08-14T05:49:33.381Z,10.80
2022-08-14T05:52:02.837Z,10.00
2022-08-14T05:54:35.270Z,10.27
2022-08-14T05:57:03.118Z,10.37
2022-08-14T05:59:38.602Z,9.90
2022-08-14T06:02:06.694Z,9.68
2022-08-14T06:04:33.346Z,9.40
2022-08-14T06:07:00.101Z,10.38
2022-08-14T06:09:28.153Z,9.33
2022-08-14T06:11:56.503Z,9.15
2022-08-14T06:14:24.627Z,8.55
2022-08-14T06:16:53.098Z,7.97
2022-08-14T06:19:20.120Z,8.32
2022-08-14T06:21:46.765Z,8.00
2022-08-14T06:24:18.900Z,7.50
2022-08-14T06:26:51.958Z,7.32
2022-08-14T06:29:23.292Z,7.43
2022-08-14T06:31:54.564Z,6.20
2022-08-14T06:35:04.070Z,6.70
2022-08-14T06:37:13.437Z,6.35
2022-08-14T06:39:44.385Z,5.90
2022-08-14T06:42:31.367Z,6.20
2022-08-14T06:44:59.152Z,5.70
2022-08-14T06:47:26.074Z,6.17
2022-08-14T06:49:57.757Z,5.65
2022-08-14T06:52:24.852Z,5.97
2022-08-14T06:54:51.745Z,5.30
2022-08-14T06:57:21.520Z,5.80
2022-08-14T06:59:48.371Z,5.87
2022-08-14T07:02:17.797Z,6.43
2022-08-14T07:04:45.707Z,5.72
2022-08-14T07:07:12.483Z,6.45
2022-08-14T07:09:44.326Z,5.80
2022-08-14T07:12:56.397Z,6.30
2022-08-14T07:15:07.330Z,6.28
2022-08-14T07:17:34.459Z,6.05
2022-08-14T07:20:04.371Z,6.43
2022-08-14T07:22:33.007Z,5.85
2022-08-14T07:25:16.965Z,5.60
2022-08-14T07:27:43.858Z,6.03
2022-08-14T07:30:34.403Z,6.18
2022-08-14T07:33:00.187Z,5.93
2022-08-14T07:35:37.286Z,5.80
2022-08-14T07:38:17.755Z,6.03
2022-08-14T07:40:47.038Z,5.68
2022-08-14T07:43:23.925Z,5.65
2022-08-14T07:45:53.962Z,5.40
2022-08-14T07:48:24.816Z,5.90
2022-08-14T07:50:52.409Z,5.30
2022-08-14T07:53:22.369Z,5.80
2022-08-14T07:56:08.930Z,5.90
2022-08-14T07:58:38.966Z,6.13
2022-08-14T08:01:25.158Z,5.70
2022-08-14T08:03:59.942Z,5.90
2022-08-14T08:06:28.193Z,5.20
2022-08-14T08:09:02.880Z,5.22
2022-08-14T08:11:34.985Z,5.40
2022-08-14T08:14:05.784Z,5.18
2022-08-14T08:16:38.731Z,5.60
2022-08-14T08:19:06.048Z,5.38
2022-08-14T08:21:39.781Z,5.00
2022-08-14T08:24:10.724Z,5.40
2022-08-14T08:26:39.410Z,4.90
2022-08-14T08:29:07.055Z,5.57
2022-08-14T08:31:35.424Z,4.85
2022-08-14T08:34:06.172Z,5.80
2022-08-14T08:36:40.419Z,5.22
2022-08-14T08:39:15.461Z,5.60
2022-08-14T08:41:50.442Z,5.30
2022-08-14T08:44:31.990Z,5.40
2022-08-14T08:47:00.399Z,5.85
2022-08-14T08:49:42.805Z,5.47
2022-08-14T08:52:24.294Z,5.72
2022-08-14T08:54:55.294Z,4.93
2022-08-14T08:57:22.438Z,5.60
2022-08-14T08:59:54.927Z,5.15
2022-08-14T09:02:26.178Z,5.40
2022-08-14T09:05:02.034Z,5.43
2022-08-14T09:07:28.916Z,5.57
2022-08-14T09:09:58.895Z,5.65
2022-08-14T09:12:27.050Z,5.20
2022-08-14T09:15:00.676Z,5.15
2022-08-14T09:17:27.946Z,5.35
2022-08-14T09:19:56.243Z,4.97
2022-08-14T09:22:35.315Z,5.40
2022-08-14T09:25:04.123Z,5.13
2022-08-14T09:27:34.521Z,5.10
2022-08-14T09:30:01.560Z,4.63
2022-08-14T09:32:59.582Z,5.50
2022-08-14T09:35:42.447Z,5.00
2022-08-14T09:38:26.092Z,4.82
2022-08-14T09:41:04.059Z,5.25
2022-08-14T09:43:40.812Z,4.80
2022-08-14T09:46:09.495Z,5.57
2022-08-14T09:48:37.038Z,5.70
2022-08-14T09:54:12.578Z,5.05
2022-08-14T09:56:30.844Z,5.15
2022-08-14T09:59:09.532Z,5.57
2022-08-14T10:01:37.384Z,5.20
2022-08-14T10:04:34.193Z,5.30
2022-08-14T10:07:04.975Z,5.07
2022-08-14T10:09:34.621Z,5.35
2022-08-14T10:12:04.391Z,5.17
2022-08-14T10:14:36.626Z,5.35
2022-08-14T10:17:06.442Z,5.05
2022-08-14T10:19:35.662Z,4.78
2022-08-14T10:23:15.472Z,4.95
2022-08-14T10:24:52.646Z,4.40
2022-08-14T10:27:22.330Z,4.60
2022-08-14T10:29:51.060Z,4.95
2022-08-14T10:32:29.272Z,4.63
2022-08-14T10:35:06.427Z,4.38
2022-08-14T10:37:45.257Z,4.33
2022-08-14T10:40:38.215Z,4.60
2022-08-14T10:43:03.126Z,4.43
2022-08-14T10:45:34.042Z,4.85
2022-08-14T10:48:07.940Z,4.32
2022-08-14T10:50:41.512Z,4.27
2022-08-14T10:53:10.580Z,4.35
2022-08-14T10:55:39.244Z,4.88
2022-08-14T10:58:11.842Z,4.90
2022-08-14T11:00:42.798Z,4.57
2022-08-14T11:03:19.793Z,4.90
2022-08-14T11:05:55.955Z,5.18
2022-08-14T11:08:33.411Z,5.32
2022-08-14T11:11:03.920Z,5.13
2022-08-14T11:13:31.654Z,5.20
2022-08-14T11:16:00.641Z,4.90
2022-08-14T11:18:30.230Z,5.32
2022-08-14T11:21:03.355Z,5.40
2022-08-14T11:23:38.597Z,5.25
2022-08-14T11:26:08.400Z,4.93
2022-08-14T11:28:46.941Z,5.40
2022-08-14T11:31:18.920Z,5.72
2022-08-14T11:33:49.798Z,5.38
2022-08-14T11:36:18.540Z,5.53
2022-08-14T11:38:47.005Z,5.07
2022-08-14T11:41:17.325Z,5.60
2022-08-14T11:43:55.843Z,5.35
2022-08-14T11:46:30.330Z,4.80
2022-08-14T11:49:05.400Z,5.43
2022-08-14T11:51:50.757Z,5.28
2022-08-14T11:54:34.062Z,4.87
2022-08-14T11:57:02.512Z,4.90
2022-08-14T11:59:32.814Z,5.32
2022-08-14T12:02:09.317Z,5.57
2022-08-14T12:04:56.117Z,4.88
2022-08-14T12:07:24.624Z,5.10
2022-08-14T12:09:56.202Z,5.15
2022-08-14T12:12:36.135Z,5.07
2022-08-14T12:15:04.706Z,4.90
2022-08-14T12:17:47.520Z,5.38
2022-08-14T12:20:16.261Z,5.17
2022-08-14T12:22:57.092Z,5.70
2022-08-14T12:25:25.271Z,5.22
2022-08-14T12:27:58.894Z,5.10
2022-08-14T12:30:37.396Z,5.00
2022-08-14T12:33:06.251Z,4.77
2022-08-14T12:35:39.539Z,4.88
2022-08-14T12:38:06.802Z,5.38
2022-08-14T12:40:46.102Z,4.97
2022-08-14T12:43:14.111Z,5.50
2022-08-14T12:45:46.797Z,5.60
2022-08-14T12:48:21.085Z,5.38
2022-08-14T12:50:58.017Z,5.18
2022-08-14T12:53:36.134Z,4.65
2022-08-14T12:56:22.357Z,4.53
2022-08-14T12:58:54.855Z,5.50
2022-08-14T13:01:23.378Z,4.85
2022-08-14T13:03:52.033Z,5.30
2022-08-14T13:06:19.707Z,5.32
2022-08-14T13:08:53.227Z,5.22
2022-08-14T13:11:24.273Z,5.20
2022-08-14T13:13:56.043Z,4.57
2022-08-14T13:16:33.797Z,5.25
2022-08-14T13:19:06.035Z,5.43
2022-08-14T13:21:58.566Z,4.75
2022-08-14T13:24:27.886Z,5.27
2022-08-14T13:26:56.476Z,4.70
2022-08-14T13:29:28.169Z,4.55
2022-08-14T13:31:57.379Z,4.82
2022-08-14T13:34:26.678Z,4.60
2022-08-14T13:37:03.918Z,5.17
2022-08-14T13:39:31.218Z,4.82
2022-08-14T13:42:08.211Z,4.47
2022-08-14T13:44:36.130Z,4.13
2022-08-14T13:47:03.869Z,5.10
2022-08-14T13:49:30.599Z,4.97
2022-08-14T13:52:00.315Z,4.30
2022-08-14T13:54:29.457Z,4.85
2022-08-14T13:57:00.346Z,5.00
2022-08-14T13:59:38.191Z,4.70
2022-08-14T14:02:06.676Z,4.43
2022-08-14T14:04:39.599Z,4.25
2022-08-14T14:07:09.170Z,4.18
2022-08-14T14:09:51.080Z,4.78
2022-08-14T14:12:37.555Z,4.50
2022-08-14T14:15:11.323Z,4.73
2022-08-14T14:17:38.888Z,4.40
2022-08-14T14:20:08.610Z,4.70
2022-08-14T14:23:01.245Z,4.35
2022-08-14T14:25:26.391Z,4.55
2022-08-14T14:28:15.479Z,4.70
2022-08-14T14:30:53.079Z,4.95
2022-08-14T14:33:45.122Z,4.40
2022-08-14T14:36:11.452Z,4.93
2022-08-14T14:38:43.307Z,5.03
2022-08-14T14:41:13.816Z,5.37
2022-08-14T14:43:44.675Z,4.47
2022-08-14T14:46:13.404Z,5.03
2022-08-14T14:48:43.988Z,4.82
2022-08-14T14:51:15.175Z,5.05
2022-08-14T14:53:44.031Z,4.80
2022-08-14T14:56:49.836Z,5.00
2022-08-14T14:58:58.412Z,4.78
2022-08-14T15:01:26.688Z,4.75
2022-08-14T15:03:54.888Z,5.05
2022-08-14T15:06:30.209Z,4.90
2022-08-14T15:08:59.950Z,5.45
2022-08-14T15:11:30.500Z,4.28
2022-08-14T15:14:00.032Z,4.88
2022-08-14T15:16:28.643Z,5.10
2022-08-14T15:19:05.316Z,4.83
2022-08-14T15:21:32.096Z,5.22
2022-08-14T15:23:58.735Z,4.80
2022-08-14T15:26:31.921Z,4.90
2022-08-14T15:29:02.801Z,4.80
2022-08-14T15:31:34.979Z,4.20
2022-08-14T15:34:43.998Z,4.60
2022-08-14T15:36:50.318Z,4.82
2022-08-14T15:39:17.633Z,5.00
2022-08-14T15:41:45.323Z,4.93
2022-08-14T15:44:25.355Z,5.30
2022-08-14T15:46:55.146Z,5.47
2022-08-14T15:49:22.181Z,4.70
2022-08-14T15:51:50.932Z,4.60
2022-08-14T15:54:22.915Z,4.90
2022-08-14T15:56:59.603Z,4.73
2022-08-14T15:59:27.911Z,4.95
2022-08-14T16:01:56.727Z,5.00
2022-08-14T16:04:23.764Z,5.55
2022-08-14T16:06:54.726Z,4.82
2022-08-14T16:09:22.466Z,4.70
2022-08-14T16:11:53.734Z,5.10
2022-08-14T16:14:21.475Z,4.72
2022-08-14T16:16:51.292Z,4.82
2022-08-14T16:19:29.035Z,4.88
2022-08-14T16:22:56.805Z,5.00
2022-08-14T16:24:59.920Z,4.57
2022-08-14T16:27:38.762Z,4.88
2022-08-14T16:30:10.913Z,5.45
2022-08-14T16:32:54.560Z,4.53
2022-08-14T16:35:23.531Z,4.87
2022-08-14T16:37:50.706Z,4.82
2022-08-14T16:40:22.712Z,4.55
2022-08-14T16:43:04.747Z,4.65
2022-08-14T16:45:39.191Z,4.95
2022-08-14T16:48:57.612Z,4.70
2022-08-14T16:50:59.025Z,4.55
2022-08-14T16:53:27.502Z,4.90
2022-08-14T16:56:17.039Z,4.70
2022-08-14T16:58:50.123Z,4.90
2022-08-14T17:01:24.606Z,4.67
2022-08-14T17:03:58.360Z,5.30
2022-08-14T17:06:45.793Z,4.60
2022-08-14T17:09:31.763Z,4.75
2022-08-14T17:12:07.679Z,4.60
2022-08-14T17:14:56.862Z,4.53
2022-08-14T17:17:27.662Z,5.22
2022-08-14T17:20:00.236Z,5.10
2022-08-14T17:22:54.534Z,4.70
2022-08-14T17:25:25.502Z,4.78
2022-08-14T17:28:50.604Z,4.87
2022-08-14T17:30:59.766Z,5.00
2022-08-14T17:33:32.918Z,4.70
2022-08-14T17:36:11.425Z,5.10
2022-08-14T17:38:59.802Z,4.78
2022-08-14T17:41:36.301Z,4.90
2022-08-14T17:44:21.974Z,4.78
2022-08-14T17:47:02.140Z,4.60
2022-08-14T17:49:32.222Z,4.65
2022-08-14T17:52:07.802Z,4.55
2022-08-14T17:54:47.702Z,4.53
2022-08-14T17:57:21.914Z,4.60
2022-08-14T17:59:51.014Z,4.68
2022-08-14T18:02:22.643Z,4.28
2022-08-14T18:04:59.494Z,4.45
2022-08-14T18:08:00.011Z,4.90
2022-08-14T18:10:55.777Z,4.50
2022-08-14T18:13:04.147Z,4.43
2022-08-14T18:15:35.415Z,4.82
2022-08-14T18:18:05.285Z,4.35
2022-08-14T18:21:39.577Z,4.83
2022-08-14T18:23:19.563Z,4.70
2022-08-14T18:25:53.449Z,4.32
2022-08-14T18:28:45.041Z,4.75
2022-08-14T18:31:44.121Z,4.75
2022-08-14T18:34:31.335Z,4.70
2022-08-14T18:37:14.236Z,4.63
2022-08-14T18:40:01.035Z,5.47
2022-08-14T18:42:45.455Z,4.95
2022-08-14T18:45:15.990Z,4.97
2022-08-14T18:50:46.011Z,4.72
2022-08-14T18:53:12.749Z,4.97
2022-08-14T18:55:53.145Z,4.88
2022-08-14T18:58:31.139Z,4.85
2022-08-14T19:01:04.434Z,5.03
2022-08-14T19:03:52.543Z,5.00
2022-08-14T19:06:25.434Z,4.85
2022-08-14T19:08:52.656Z,4.90
2022-08-14T19:11:46.238Z,4.50
2022-08-14T19:14:45.560Z,4.77
2022-08-14T19:18:13.881Z,4.85
2022-08-14T19:20:46.622Z,5.22
2022-08-14T19:23:18.195Z,4.93
2022-08-14T19:25:53.856Z,5.05
2022-08-14T19:28:31.228Z,4.60
2022-08-14T19:31:46.376Z,5.05
2022-08-14T19:34:39.470Z,4.50
2022-08-14T19:37:10.317Z,4.70
2022-08-14T19:39:54.078Z,5.32
2022-08-14T19:42:28.275Z,6.17
2022-08-14T19:44:57.816Z,6.00
2022-08-14T19:47:36.102Z,5.47
2022-08-14T19:50:38.410Z,5.68
2022-08-14T19:53:02.745Z,5.25
2022-08-14T19:55:34.343Z,5.20
2022-08-14T19:58:01.855Z,5.75
2022-08-14T20:00:30.604Z,5.75
2022-08-14T20:03:09.934Z,5.50
2022-08-14T20:05:42.929Z,5.65
2022-08-14T20:11:07.028Z,5.37
2022-08-14T20:11:20.838Z,5.97
2022-08-14T20:13:56.431Z,5.30
2022-08-14T20:16:32.263Z,6.10
2022-08-14T20:19:13.543Z,5.78
2022-08-14T20:22:00.709Z,5.73
2022-08-14T20:24:40.599Z,5.13
2022-08-14T20:27:36.558Z,5.18
2022-08-14T20:30:33.085Z,5.53
2022-08-14T20:33:02.346Z,5.60
2022-08-14T20:35:35.681Z,5.40
2022-08-14T20:38:29.133Z,5.45
2022-08-14T20:40:55.481Z,5.68
2022-08-14T20:43:25.265Z,6.03
2022-08-14T20:45:56.739Z,6.00
2022-08-14T20:48:51.337Z,6.10
2022-08-14T20:51:26.193Z,5.75
2022-08-14T20:54:05.429Z,6.22
2022-08-14T20:56:34.282Z,5.72
2022-08-14T20:59:15.463Z,5.45
2022-08-14T21:01:47.038Z,5.70
2022-08-14T21:04:26.628Z,5.40
2022-08-14T21:07:26.018Z,5.28
2022-08-14T21:10:05.814Z,5.47
2022-08-14T21:12:33.721Z,5.65
2022-08-14T21:15:01.383Z,5.83
2022-08-14T21:17:29.376Z,6.22
2022-08-14T21:19:56.592Z,5.90
2022-08-14T21:22:23.270Z,5.88
2022-08-14T21:24:49.928Z,5.68
2022-08-14T21:27:28.776Z,5.13
2022-08-14T21:30:04.840Z,5.90
2022-08-14T21:32:47.323Z,5.72
2022-08-14T21:35:18.221Z,6.18
2022-08-14T21:37:46.235Z,5.93
2022-08-14T21:40:31.630Z,5.73
2022-08-14T21:43:03.896Z,6.00
2022-08-14T21:45:31.767Z,5.55
2022-08-14T21:48:09.225Z,6.13
2022-08-14T21:51:01.047Z,5.97
2022-08-14T21:53:31.058Z,6.23
2022-08-14T21:55:58.232Z,6.43
2022-08-14T21:58:52.590Z,5.32
2022-08-14T22:01:12.820Z,5.70
2022-08-14T22:03:40.922Z,5.70
2022-08-14T22:06:13.453Z,6.40
2022-08-14T22:08:46.375Z,6.05
2022-08-14T22:11:20.058Z,5.63
2022-08-14T22:13:48.992Z,5.97
2022-08-14T22:16:59.837Z,5.32
2022-08-14T22:19:06.930Z,5.97
2022-08-14T22:21:37.676Z,6.25
2022-08-14T22:24:10.505Z,5.65
2022-08-14T22:26:41.829Z,5.90
2022-08-14T22:29:13.844Z,6.00
2022-08-14T22:31:40.707Z,5.27
2022-08-14T22:34:15.030Z,6.03
2022-08-14T22:36:45.291Z,5.90
2022-08-14T22:39:12.464Z,6.10
2022-08-14T22:41:42.570Z,5.55
2022-08-14T22:44:13.807Z,5.53
2022-08-14T22:46:43.486Z,5.43
2022-08-14T22:49:16.820Z,5.80
2022-08-14T22:52:00.793Z,6.05
2022-08-14T22:54:52.537Z,5.43
2022-08-14T22:57:15.051Z,6.10
2022-08-14T22:59:42.101Z,5.72
2022-08-14T23:02:12.806Z,5.40
2022-08-14T23:04:42.555Z,6.03
2022-08-14T23:07:23.204Z,5.70
2022-08-14T23:09:56.251Z,5.87
2022-08-14T23:12:28.644Z,5.97
2022-08-14T23:14:57.664Z,5.82
2022-08-14T23:17:25.957Z,6.53
2022-08-14T23:19:56.438Z,5.65
2022-08-14T23:22:23.828Z,5.57
2022-08-14T23:24:53.163Z,5.28
2022-08-14T23:27:29.045Z,5.80
2022-08-14T23:29:58.988Z,5.57
2022-08-14T23:32:26.574Z,5.88
2022-08-14T23:34:58.444Z,6.03
2022-08-14T23:37:27.020Z,6.25
2022-08-14T23:39:54.442Z,6.35
2022-08-14T23:42:22.212Z,5.78
2022-08-14T23:45:07.715Z,5.85
2022-08-14T23:47:51.141Z,6.40
2022-08-14T23:50:38.539Z,5.65
2022-08-14T23:53:15.260Z,5.57
2022-08-14T23:55:57.573Z,6.15
2022-08-14T23:58:29.762Z,6.10
